Time;durP1;ratioP1;P1;durP2;ratioP2;P2;SDS_P1;SDS_P2;PMS_P1;PMS_P2;Temp;Humidity;BMP_temperature;BMP_pressure;BME280_temperature;BME280_humidity;BME280_pressure;Samples;Min_cycle;Max_cycle;Signal;HPM_P1;HPM_P2
2022/07/30 00:02:10;;;;;;;3.05;1.60;;;;;;;;;;5034706;28;20218;-58
2022/07/30 00:04:50;;;;;;;5.20;1.40;;;;;;;;;;5034916;28;20058;-59
2022/07/30 00:07:26;;;;;;;3.72;1.83;;;;;;;;;;5034743;28;20107;-58
2022/07/30 00:09:54;;;;;;;;;;;;;;;;;;5035012;28;20053;-58
2022/07/30 00:12:24;;;;;;;4.30;2.13;;;;;;;;;;5034473;28;19956;-58
2022/07/30 00:14:53;;;;;;;6.05;2.47;;;;;;;;;;5034579;28;20045;-59
2022/07/30 00:17:23;;;;;;;6.15;2.78;;;;;;;;;;5034857;28;20085;-58
2022/07/30 00:19:51;;;;;;;4.10;2.63;;;;;;;;;;5034561;28;20049;-58
2022/07/30 00:22:32;;;;;;;4.22;2.70;;;;;;;;;;5034369;28;20094;-58
2022/07/30 00:25:02;;;;;;;5.13;2.60;;;;;;;;;;5034766;28;20053;-58
2022/07/30 00:27:34;;;;;;;4.35;2.55;;;;;;;;;;5034455;28;20049;-58
2022/07/30 00:30:04;;;;;;;5.65;2.33;;;;;;;;;;5034431;28;20060;-58
2022/07/30 00:32:32;;;;;;;4.45;2.10;;;;;;;;;;5014691;28;20065;-59
2022/07/30 00:34:58;;;;;;;4.70;1.73;;;;;;;;;;5018932;28;20049;-58
2022/07/30 00:37:39;;;;;;;4.07;1.80;;;;;;;;;;5033953;28;20057;-58
2022/07/30 00:40:15;;;;;;;4.75;1.58;;;;;;;;;;5034378;28;20064;-59
2022/07/30 00:42:45;;;;;;;2.90;1.80;;;;;;;;;;5034153;28;20049;-58
2022/07/30 00:45:13;;;;;;;4.43;1.90;;;;;;;;;;5034380;28;20051;-59
2022/07/30 00:47:40;;;;;;;4.70;1.77;;;;;;;;;;5033583;28;20532;-56
2022/07/30 00:50:16;;;;;;;24.05;3.40;;;;;;;;;;5033416;28;20097;-58
2022/07/30 00:52:44;;;;;;;4.70;2.30;;;;;;;;;;5033833;28;20053;-59
2022/07/30 00:55:11;;;;;;;4.22;2.03;;;;;;;;;;5034208;28;20134;-55
2022/07/30 00:57:39;;;;;;;7.00;2.53;;;;;;;;;;5033692;28;20085;-59
2022/07/30 01:00:10;;;;;;;9.10;2.50;;;;;;;;;;5027811;28;20060;-58
2022/07/30 01:02:37;;;;;;;9.32;2.70;;;;;;;;;;5033908;28;20107;-58
2022/07/30 01:05:06;;;;;;;5.88;2.78;;;;;;;;;;5033361;28;20677;-57
2022/07/30 01:07:35;;;;;;;8.65;2.90;;;;;;;;;;5033700;28;20049;-58
2022/07/30 01:10:07;;;;;;;7.47;2.95;;;;;;;;;;5032979;28;20064;-58
2022/07/30 01:12:41;;;;;;;8.55;3.00;;;;;;;;;;5033417;28;20474;-57
2022/07/30 01:15:10;;;;;;;4.13;2.33;;;;;;;;;;5033229;28;20354;-58
2022/07/30 01:17:46;;;;;;;5.57;2.17;;;;;;;;;;5032924;28;20067;-58
2022/07/30 01:20:15;;;;;;;4.00;1.98;;;;;;;;;;5033265;28;20530;-58
2022/07/30 01:22:46;;;;;;;5.18;2.53;;;;;;;;;;5033647;28;20059;-57
2022/07/30 01:25:33;;;;;;;5.00;3.42;;;;;;;;;;5033558;28;20126;-57
2022/07/30 01:28:10;;;;;;;7.55;4.15;;;;;;;;;;5032833;28;20146;-58
2022/07/30 01:30:42;;;;;;;11.52;5.50;;;;;;;;;;5033490;28;20091;-57
2022/07/30 01:33:18;;;;;;;12.80;6.30;;;;;;;;;;5033422;28;20057;-57
2022/07/30 01:35:50;;;;;;;11.95;5.43;;;;;;;;;;5033171;28;20704;-57
2022/07/30 01:38:25;;;;;;;8.23;4.38;;;;;;;;;;5033240;28;20128;-58
2022/07/30 01:40:54;;;;;;;9.15;4.20;;;;;;;;;;5033428;28;20050;-56
2022/07/30 01:43:26;;;;;;;7.78;4.50;;;;;;;;;;5032901;28;20053;-56
2022/07/30 01:46:00;;;;;;;9.13;4.65;;;;;;;;;;5033218;28;20053;-58
2022/07/30 01:48:30;;;;;;;7.20;3.15;;;;;;;;;;5032826;28;20054;-58
2022/07/30 01:51:00;;;;;;;7.47;3.30;;;;;;;;;;5031786;28;20068;-57
2022/07/30 01:53:31;;;;;;;8.80;3.30;;;;;;;;;;5033252;28;20057;-57
2022/07/30 01:56:02;;;;;;;7.43;3.50;;;;;;;;;;5033151;28;20050;-58
2022/07/30 01:58:41;;;;;;;8.45;4.10;;;;;;;;;;5032534;28;20535;-58
2022/07/30 02:01:10;;;;;;;12.07;3.92;;;;;;;;;;5032849;28;20057;-58
2022/07/30 02:03:46;;;;;;;8.07;3.35;;;;;;;;;;5032767;28;20049;-57
2022/07/30 02:06:18;;;;;;;5.53;3.17;;;;;;;;;;5032520;28;20485;-57
2022/07/30 02:08:51;;;;;;;6.38;2.35;;;;;;;;;;5033237;28;20056;-58
2022/07/30 02:12:27;;;;;;;5.15;2.58;;;;;;;;;;5033662;28;20053;-57
2022/07/30 02:14:22;;;;;;;3.70;2.10;;;;;;;;;;5036119;28;20351;-58
2022/07/30 02:16:50;;;;;;;8.18;3.10;;;;;;;;;;5036441;28;20469;-58
2022/07/30 02:19:26;;;;;;;5.65;2.35;;;;;;;;;;5037072;28;20049;-58
2022/07/30 02:21:56;;;;;;;5.03;2.35;;;;;;;;;;5017318;28;20058;-58
2022/07/30 02:24:30;;;;;;;6.90;2.55;;;;;;;;;;5023971;28;20060;-58
2022/07/30 02:27:03;;;;;;;8.43;3.35;;;;;;;;;;5036602;28;20057;-58
2022/07/30 02:29:40;;;;;;;12.80;5.68;;;;;;;;;;5035969;28;20064;-58
2022/07/30 02:32:12;;;;;;;8.70;4.45;;;;;;;;;;5036298;28;20115;-58
2022/07/30 02:34:44;;;;;;;8.65;4.57;;;;;;;;;;5036279;28;20049;-55
2022/07/30 02:37:13;;;;;;;8.55;4.28;;;;;;;;;;5036083;28;20132;-57
2022/07/30 02:39:43;;;;;;;9.90;4.35;;;;;;;;;;5035566;28;20437;-56
2022/07/30 02:42:14;;;;;;;10.27;5.85;;;;;;;;;;5036115;28;20049;-57
2022/07/30 02:44:59;;;;;;;11.43;4.93;;;;;;;;;;5035915;28;20545;-57
2022/07/30 02:47:27;;;;;;;12.10;5.22;;;;;;;;;;5036412;28;20151;-58
2022/07/30 02:49:56;;;;;;;5.55;3.03;;;;;;;;;;5036256;28;20055;-54
2022/07/30 02:52:33;;;;;;;6.18;2.97;;;;;;;;;;5036262;28;20049;-55
2022/07/30 02:55:02;;;;;;;8.13;3.95;;;;;;;;;;5035400;28;20056;-56
2022/07/30 02:57:47;;;;;;;8.07;3.97;;;;;;;;;;5035946;28;20053;-57
2022/07/30 03:00:17;;;;;;;7.63;3.95;;;;;;;;;;5035365;28;20068;-58
2022/07/30 03:02:46;;;;;;;6.40;3.08;;;;;;;;;;5034555;28;20068;-58
2022/07/30 03:05:22;;;;;;;7.38;3.22;;;;;;;;;;5035551;28;20407;-58
2022/07/30 03:07:52;;;;;;;8.07;3.20;;;;;;;;;;5035768;28;20509;-56
2022/07/30 03:10:21;;;;;;;4.93;2.50;;;;;;;;;;5035945;28;20058;-57
2022/07/30 03:12:51;;;;;;;9.30;2.60;;;;;;;;;;5035949;28;20060;-57
2022/07/30 03:15:33;;;;;;;5.25;2.90;;;;;;;;;;5035038;28;20518;-57
2022/07/30 03:18:10;;;;;;;6.28;2.08;;;;;;;;;;5035830;28;20050;-57
2022/07/30 03:20:37;;;;;;;8.70;3.17;;;;;;;;;;5035804;28;20061;-56
2022/07/30 03:23:05;;;;;;;4.95;2.95;;;;;;;;;;5034865;28;20088;-57
2022/07/30 03:25:36;;;;;;;6.40;3.10;;;;;;;;;;5033020;28;20470;-57
2022/07/30 03:28:06;;;;;;;6.45;3.30;;;;;;;;;;5036016;28;20049;-58
2022/07/30 03:30:48;;;;;;;7.13;4.03;;;;;;;;;;5034579;28;20053;-58
2022/07/30 03:33:15;;;;;;;7.47;3.85;;;;;;;;;;5035543;28;20045;-58
2022/07/30 03:35:50;;;;;;;7.35;2.92;;;;;;;;;;5032233;28;20049;-58
2022/07/30 03:38:19;;;;;;;7.43;2.75;;;;;;;;;;5035613;28;20053;-58
2022/07/30 03:40:49;;;;;;;6.20;2.45;;;;;;;;;;5035273;28;20060;-58
2022/07/30 03:43:17;;;;;;;3.00;1.75;;;;;;;;;;5035379;28;20041;-58
2022/07/30 03:45:53;;;;;;;2.70;1.90;;;;;;;;;;5035421;28;20045;-54
2022/07/30 03:48:22;;;;;;;4.65;1.83;;;;;;;;;;5035039;28;20132;-57
2022/07/30 03:50:49;;;;;;;4.47;1.70;;;;;;;;;;5033576;28;20111;-56
2022/07/30 03:53:19;;;;;;;3.58;1.30;;;;;;;;;;5035212;28;20056;-57
2022/07/30 03:55:55;;;;;;;3.60;1.70;;;;;;;;;;5035183;28;20081;-58
2022/07/30 03:58:25;;;;;;;5.43;1.65;;;;;;;;;;5034937;28;20454;-57
2022/07/30 04:01:00;;;;;;;3.38;2.13;;;;;;;;;;5034518;28;20053;-58
2022/07/30 04:03:30;;;;;;;4.13;2.10;;;;;;;;;;5033486;28;20119;-57
2022/07/30 04:06:00;;;;;;;4.80;2.13;;;;;;;;;;5021653;28;20088;-58
2022/07/30 04:08:42;;;;;;;5.07;2.17;;;;;;;;;;5027782;28;20141;-58
2022/07/30 04:11:12;;;;;;;6.63;2.03;;;;;;;;;;5014997;28;20518;-58
2022/07/30 04:13:38;;;;;;;8.98;2.60;;;;;;;;;;5030097;28;20049;-57
2022/07/30 04:16:26;;;;;;;4.88;2.47;;;;;;;;;;5029405;28;20049;-58
2022/07/30 04:18:55;;;;;;;5.38;2.20;;;;;;;;;;5034904;28;20093;-58
2022/07/30 04:21:34;;;;;;;5.78;2.47;;;;;;;;;;5034108;28;20049;-58
2022/07/30 04:24:04;;;;;;;6.40;3.47;;;;;;;;;;5034367;28;20053;-58
2022/07/30 04:26:34;;;;;;;6.80;3.00;;;;;;;;;;5034620;28;20049;-58
2022/07/30 04:29:09;;;;;;;10.55;3.33;;;;;;;;;;5034697;28;20115;-58
2022/07/30 04:31:39;;;;;;;4.63;2.38;;;;;;;;;;5034130;28;20059;-58
2022/07/30 04:34:08;;;;;;;6.10;2.58;;;;;;;;;;5033713;28;20056;-58
2022/07/30 04:36:37;;;;;;;8.40;1.92;;;;;;;;;;5033795;28;20113;-58
2022/07/30 04:39:07;;;;;;;8.23;2.13;;;;;;;;;;5033468;28;20084;-58
2022/07/30 04:41:36;;;;;;;9.82;2.20;;;;;;;;;;5034130;28;20364;-58
2022/07/30 04:44:04;;;;;;;6.53;1.88;;;;;;;;;;5034433;28;20049;-58
2022/07/30 04:46:33;;;;;;;4.18;1.45;;;;;;;;;;5034108;28;20079;-58
2022/07/30 04:49:10;;;;;;;5.18;2.17;;;;;;;;;;5033846;28;20394;-58
2022/07/30 04:51:40;;;;;;;4.18;1.30;;;;;;;;;;5034051;28;20049;-58
2022/07/30 04:54:09;;;;;;;3.22;1.38;;;;;;;;;;5034176;28;20057;-58
2022/07/30 04:56:45;;;;;;;2.13;1.10;;;;;;;;;;5032892;28;20049;-58
2022/07/30 04:59:16;;;;;;;2.97;0.90;;;;;;;;;;5034060;28;20049;-58
2022/07/30 05:01:46;;;;;;;1.98;0.80;;;;;;;;;;5023425;28;20061;-58
2022/07/30 05:04:20;;;;;;;1.65;0.60;;;;;;;;;;5033961;28;20111;-58
2022/07/30 05:06:52;;;;;;;2.63;0.50;;;;;;;;;;5033515;28;20125;-57
2022/07/30 05:09:20;;;;;;;2.40;0.70;;;;;;;;;;5033476;28;20459;-58
2022/07/30 05:11:51;;;;;;;2.05;0.50;;;;;;;;;;5033312;28;20077;-58
2022/07/30 05:14:27;;;;;;;2.13;0.73;;;;;;;;;;5033801;28;20045;-57
2022/07/30 05:16:58;;;;;;;3.35;0.50;;;;;;;;;;5033417;28;20048;-57
2022/07/30 05:19:33;;;;;;;1.48;0.75;;;;;;;;;;5033570;28;20065;-56
2022/07/30 05:22:01;;;;;;;3.15;0.65;;;;;;;;;;5020189;28;20455;-59
2022/07/30 05:24:31;;;;;;;1.98;0.70;;;;;;;;;;5022389;28;20072;-58
2022/07/30 05:27:01;;;;;;;1.45;0.60;;;;;;;;;;5033440;28;20165;-58
2022/07/30 05:29:30;;;;;;;4.20;0.77;;;;;;;;;;5033086;28;20135;-58
2022/07/30 05:31:58;;;;;;;3.17;0.85;;;;;;;;;;5033569;28;20053;-57
2022/07/30 05:34:25;;;;;;;3.33;1.10;;;;;;;;;;5033076;28;20538;-55
2022/07/30 05:36:55;;;;;;;2.13;0.60;;;;;;;;;;5032871;28;20042;-57
2022/07/30 05:39:25;;;;;;;1.95;0.65;;;;;;;;;;5033258;28;20053;-57
2022/07/30 05:41:52;;;;;;;1.63;0.60;;;;;;;;;;5033171;28;20140;-58
2022/07/30 05:44:22;;;;;;;3.17;0.80;;;;;;;;;;5033144;28;20061;-58
2022/07/30 05:46:52;;;;;;;3.13;0.68;;;;;;;;;;5032978;28;20474;-59
2022/07/30 05:49:19;;;;;;;1.77;0.65;;;;;;;;;;5033178;28;20095;-58
2022/07/30 05:51:47;;;;;;;1.90;0.70;;;;;;;;;;5031719;28;20394;-58
2022/07/30 05:54:19;;;;;;;1.95;0.50;;;;;;;;;;5033200;28;20052;-59
2022/07/30 05:59:26;;;;;;;2.00;0.50;;;;;;;;;;5013199;28;20076;-59
2022/07/30 06:01:56;;;;;;;1.70;0.40;;;;;;;;;;5023397;28;20057;-58
2022/07/30 06:04:27;;;;;;;1.08;0.50;;;;;;;;;;5032872;28;20060;-58
2022/07/30 06:06:57;;;;;;;1.02;0.40;;;;;;;;;;5032637;28;20064;-58
2022/07/30 06:09:27;;;;;;;2.67;0.55;;;;;;;;;;5032880;28;20053;-59
2022/07/30 06:11:56;;;;;;;1.80;0.57;;;;;;;;;;5032797;28;20064;-59
2022/07/30 06:14:25;;;;;;;1.10;0.40;;;;;;;;;;5026770;28;20053;-58
2022/07/30 06:16:55;;;;;;;0.95;0.43;;;;;;;;;;5032449;28;20130;-59
2022/07/30 06:19:25;;;;;;;2.05;0.50;;;;;;;;;;5032437;28;20049;-59
2022/07/30 06:21:51;;;;;;;1.67;0.50;;;;;;;;;;5013926;28;20072;-58
2022/07/30 06:24:18;;;;;;;1.02;0.40;;;;;;;;;;5021343;28;20053;-59
2022/07/30 06:26:48;;;;;;;0.95;0.50;;;;;;;;;;5032303;28;20549;-58
2022/07/30 06:29:18;;;;;;;2.90;0.60;;;;;;;;;;5032475;28;20087;-58
2022/07/30 06:31:49;;;;;;;1.27;0.50;;;;;;;;;;5032568;28;20532;-59
2022/07/30 06:34:18;;;;;;;0.93;0.35;;;;;;;;;;5032328;28;20477;-58
2022/07/30 06:36:46;;;;;;;1.23;0.40;;;;;;;;;;5032354;28;20095;-57
2022/07/30 06:39:14;;;;;;;4.03;0.70;;;;;;;;;;5032820;28;20152;-54
2022/07/30 06:41:44;;;;;;;1.05;0.30;;;;;;;;;;5032544;28;20103;-58
2022/07/30 06:44:26;;;;;;;1.25;0.40;;;;;;;;;;5032237;28;20471;-57
2022/07/30 06:46:54;;;;;;;1.92;0.65;;;;;;;;;;5032376;28;20050;-57
2022/07/30 06:49:22;;;;;;;1.80;0.50;;;;;;;;;;5031311;28;20080;-57
2022/07/30 06:51:53;;;;;;;1.10;0.50;;;;;;;;;;5031799;28;20084;-57
2022/07/30 06:54:22;;;;;;;1.33;0.57;;;;;;;;;;5031032;28;20053;-56
2022/07/30 06:56:50;;;;;;;1.75;0.40;;;;;;;;;;5026539;28;20505;-58
2022/07/30 06:59:26;;;;;;;1.20;0.55;;;;;;;;;;5028852;28;20064;-58
2022/07/30 07:01:57;;;;;;;0.90;0.47;;;;;;;;;;5029083;28;20054;-57
2022/07/30 07:04:26;;;;;;;1.25;0.50;;;;;;;;;;5024192;28;20054;-59
2022/07/30 07:06:55;;;;;;;1.42;0.50;;;;;;;;;;5023993;28;20104;-59
2022/07/30 07:12:05;;;;;;;0.60;0.50;;;;;;;;;;5014530;28;20054;-59
2022/07/30 07:14:46;;;;;;;1.95;0.70;;;;;;;;;;5033799;28;20131;-59
2022/07/30 07:17:14;;;;;;;2.58;0.60;;;;;;;;;;5015809;28;20166;-59
2022/07/30 07:19:43;;;;;;;1.55;0.40;;;;;;;;;;5017666;28;20054;-58
2022/07/30 07:22:12;;;;;;;0.73;0.52;;;;;;;;;;5035285;28;20463;-58
2022/07/30 07:24:42;;;;;;;1.85;0.50;;;;;;;;;;5035186;28;20061;-59
2022/07/30 07:27:12;;;;;;;1.98;0.80;;;;;;;;;;5035470;28;20053;-59
2022/07/30 07:29:46;;;;;;;1.40;0.68;;;;;;;;;;5034991;28;20060;-59
2022/07/30 07:32:16;;;;;;;1.58;0.50;;;;;;;;;;5035566;28;20096;-57
2022/07/30 07:34:42;;;;;;;1.08;0.50;;;;;;;;;;5035189;28;20108;-59
2022/07/30 07:37:14;;;;;;;1.98;0.43;;;;;;;;;;5034896;28;20053;-59
2022/07/30 07:39:42;;;;;;;1.50;0.73;;;;;;;;;;5035175;28;20053;-59
2022/07/30 07:42:12;;;;;;;1.05;0.40;;;;;;;;;;5035435;28;20060;-59
2022/07/30 07:44:45;;;;;;;5.05;0.80;;;;;;;;;;5035171;28;20068;-59
2022/07/30 07:47:14;;;;;;;0.73;0.40;;;;;;;;;;5035125;28;20136;-59
2022/07/30 07:49:44;;;;;;;2.50;0.55;;;;;;;;;;5035076;28;20311;-59
2022/07/30 07:52:10;;;;;;;0.70;0.40;;;;;;;;;;5033719;28;20115;-58
2022/07/30 07:54:40;;;;;;;1.08;0.40;;;;;;;;;;5033340;28;20421;-59
2022/07/30 08:00:03;;;;;;;2.85;0.60;;;;;;;;;;5035161;28;20049;-59
2022/07/30 08:02:45;;;;;;;1.55;0.60;;;;;;;;;;5034582;28;20764;-59
2022/07/30 08:05:15;;;;;;;2.80;0.50;;;;;;;;;;5034116;28;20053;-59
2022/07/30 08:07:45;;;;;;;2.63;0.77;;;;;;;;;;5034648;28;20063;-59
2022/07/30 08:10:15;;;;;;;1.45;0.40;;;;;;;;;;5033898;28;20049;-59
2022/07/30 08:12:42;;;;;;;0.52;0.40;;;;;;;;;;5034584;28;20140;-58
2022/07/30 08:15:11;;;;;;;1.15;0.60;;;;;;;;;;5034078;28;20128;-59
2022/07/30 08:17:42;;;;;;;1.73;0.47;;;;;;;;;;5033328;28;20555;-58
2022/07/30 08:20:21;;;;;;;8.00;0.68;;;;;;;;;;5034462;28;20496;-59
2022/07/30 08:22:50;;;;;;;5.75;0.55;;;;;;;;;;5034485;28;20056;-59
2022/07/30 08:25:21;;;;;;;2.05;0.43;;;;;;;;;;5034585;28;20148;-59
2022/07/30 08:27:51;;;;;;;1.02;0.35;;;;;;;;;;5034351;28;20319;-58
2022/07/30 08:30:19;;;;;;;1.33;0.38;;;;;;;;;;5034472;28;20057;-59
2022/07/30 08:32:48;;;;;;;8.90;0.90;;;;;;;;;;5034376;28;20049;-58
2022/07/30 08:35:18;;;;;;;1.17;0.35;;;;;;;;;;5034409;28;20061;-58
2022/07/30 08:37:44;;;;;;;2.53;0.40;;;;;;;;;;5033635;28;20049;-59
2022/07/30 08:40:13;;;;;;;0.47;0.20;;;;;;;;;;5020913;28;20049;-58
2022/07/30 08:42:42;;;;;;;1.02;0.30;;;;;;;;;;5019469;28;20146;-58
2022/07/30 08:45:12;;;;;;;11.70;1.20;;;;;;;;;;5026756;28;20119;-58
2022/07/30 08:47:42;;;;;;;2.45;0.60;;;;;;;;;;5028332;28;20081;-58
2022/07/30 08:50:11;;;;;;;13.68;1.48;;;;;;;;;;5032108;28;20447;-56
2022/07/30 08:52:42;;;;;;;1.73;0.35;;;;;;;;;;5032368;28;20459;-59
2022/07/30 08:55:11;;;;;;;1.35;0.30;;;;;;;;;;5032490;28;20494;-58
2022/07/30 08:57:38;;;;;;;1.90;0.32;;;;;;;;;;5032416;28;20053;-59
2022/07/30 09:00:10;;;;;;;1.83;0.47;;;;;;;;;;5032337;28;20053;-58
2022/07/30 09:02:37;;;;;;;2.85;0.55;;;;;;;;;;5032435;28;20060;-57
2022/07/30 09:05:04;;;;;;;4.50;0.65;;;;;;;;;;5032016;28;20449;-56
2022/07/30 09:07:44;;;;;;;1.75;0.40;;;;;;;;;;5032503;28;20053;-56
2022/07/30 09:10:11;;;;;;;1.55;0.38;;;;;;;;;;5032509;28;20058;-58
2022/07/30 09:12:48;;;;;;;1.48;0.50;;;;;;;;;;5031861;28;20057;-58
2022/07/30 09:15:19;;;;;;;23.65;2.13;;;;;;;;;;5032058;28;20053;-59
2022/07/30 09:17:49;;;;;;;1.10;0.60;;;;;;;;;;5033205;28;20115;-59
2022/07/30 09:20:16;;;;;;;4.90;0.70;;;;;;;;;;5032670;28;20115;-59
2022/07/30 09:22:48;;;;;;;3.38;0.63;;;;;;;;;;5033625;28;20054;-57
2022/07/30 09:25:23;;;;;;;44.25;4.60;;;;;;;;;;5032976;28;20059;-58
2022/07/30 09:27:52;;;;;;;9.65;1.00;;;;;;;;;;5033180;28;20054;-59
2022/07/30 09:30:19;;;;;;;2.63;0.60;;;;;;;;;;5033493;28;20049;-58
2022/07/30 09:32:58;;;;;;;7.45;1.15;;;;;;;;;;5033132;28;20405;-58
2022/07/30 09:35:24;;;;;;;1.17;0.45;;;;;;;;;;5033243;28;20138;-57
2022/07/30 09:38:03;;;;;;;6.43;0.73;;;;;;;;;;5032932;28;20049;-58
2022/07/30 09:40:31;;;;;;;1.70;0.50;;;;;;;;;;5032942;28;20475;-57
2022/07/30 09:43:13;;;;;;;3.20;1.23;;;;;;;;;;5032734;28;20053;-57
2022/07/30 09:46:02;;;;;;;2.05;0.40;;;;;;;;;;5033307;28;20452;-58
2022/07/30 09:48:29;;;;;;;5.35;0.50;;;;;;;;;;5033336;28;20367;-57
2022/07/30 09:50:59;;;;;;;1.08;0.30;;;;;;;;;;5032711;28;20049;-59
2022/07/30 09:53:37;;;;;;;22.33;3.03;;;;;;;;;;5032917;28;20489;-58
2022/07/30 09:56:21;;;;;;;4.15;0.70;;;;;;;;;;5032548;28;20470;-59
2022/07/30 09:58:50;;;;;;;2.05;0.52;;;;;;;;;;5033228;28;20088;-58
2022/07/30 10:01:19;;;;;;;2.10;0.50;;;;;;;;;;5032615;28;20102;-55
2022/07/30 10:03:46;;;;;;;0.50;0.30;;;;;;;;;;5033145;28;20068;-57
2022/07/30 10:06:17;;;;;;;0.93;0.60;;;;;;;;;;5032774;28;20080;-57
2022/07/30 10:08:54;;;;;;;1.45;0.50;;;;;;;;;;5032317;28;20433;-58
2022/07/30 10:11:21;;;;;;;1.50;0.40;;;;;;;;;;5032992;28;20061;-58
2022/07/30 10:13:49;;;;;;;1.17;0.55;;;;;;;;;;5032958;28;20050;-58
2022/07/30 10:16:16;;;;;;;1.08;0.50;;;;;;;;;;5032802;28;20049;-58
2022/07/30 10:18:46;;;;;;;1.08;0.43;;;;;;;;;;5032712;28;20055;-59
2022/07/30 10:21:15;;;;;;;1.05;0.45;;;;;;;;;;5032660;28;20050;-58
2022/07/30 10:23:45;;;;;;;1.40;0.50;;;;;;;;;;5032658;28;20466;-59
2022/07/30 10:26:20;;;;;;;1.77;0.60;;;;;;;;;;5032236;28;20061;-58
2022/07/30 10:31:30;;;;;;;1.45;0.50;;;;;;;;;;5032502;28;20064;-58
2022/07/30 10:34:00;;;;;;;0.85;0.40;;;;;;;;;;5035717;28;20045;-58
2022/07/30 10:36:27;;;;;;;6.63;0.70;;;;;;;;;;5036329;28;20057;-58
2022/07/30 10:38:54;;;;;;;1.70;0.52;;;;;;;;;;5035404;28;20080;-58
2022/07/30 10:41:41;;;;;;;2.10;0.68;;;;;;;;;;5035846;28;20136;-58
2022/07/30 10:44:23;;;;;;;1.23;0.88;;;;;;;;;;5035650;28;20050;-59
2022/07/30 10:47:01;;;;;;;2.83;0.70;;;;;;;;;;5036347;28;20057;-58
2022/07/30 10:49:31;;;;;;;2.05;0.70;;;;;;;;;;5035534;28;20061;-58
2022/07/30 10:51:59;;;;;;;1.75;0.63;;;;;;;;;;5035893;28;20053;-58
2022/07/30 10:54:46;;;;;;;1.60;0.50;;;;;;;;;;5035652;28;20390;-58
2022/07/30 10:57:17;;;;;;;6.32;0.80;;;;;;;;;;5035489;28;20089;-58
2022/07/30 11:00:03;;;;;;;2.08;0.60;;;;;;;;;;5036130;28;20076;-58
2022/07/30 11:02:34;;;;;;;2.60;0.43;;;;;;;;;;5035695;28;20171;-58
2022/07/30 11:05:17;;;;;;;1.38;0.45;;;;;;;;;;5035588;28;20057;-58
2022/07/30 11:07:44;;;;;;;1.55;0.60;;;;;;;;;;5035706;28;20386;-58
2022/07/30 11:10:36;;;;;;;1.52;0.45;;;;;;;;;;5034761;28;20053;-58
2022/07/30 11:13:11;;;;;;;5.70;0.80;;;;;;;;;;5035804;28;20046;-59
2022/07/30 11:15:56;;;;;;;2.65;0.70;;;;;;;;;;5035719;28;20084;-58
2022/07/30 11:18:26;;;;;;;0.93;0.60;;;;;;;;;;5035100;28;20132;-57
2022/07/30 11:21:12;;;;;;;0.57;0.40;;;;;;;;;;5035904;28;20057;-57
2022/07/30 11:23:41;;;;;;;1.75;0.63;;;;;;;;;;5035330;28;20385;-56
2022/07/30 11:26:19;;;;;;;5.65;0.50;;;;;;;;;;5035599;28;20053;-58
2022/07/30 11:28:54;;;;;;;7.60;0.80;;;;;;;;;;5035619;28;20095;-58
2022/07/30 11:31:32;;;;;;;1.45;0.43;;;;;;;;;;5035312;28;20506;-59
2022/07/30 11:34:19;;;;;;;3.22;0.50;;;;;;;;;;5033267;28;20139;-59
2022/07/30 11:37:01;;;;;;;2.78;0.40;;;;;;;;;;5035555;28;20236;-58
2022/07/30 11:39:46;;;;;;;3.53;0.50;;;;;;;;;;5035131;28;20057;-57
2022/07/30 11:42:25;;;;;;;2.50;0.60;;;;;;;;;;5035265;28;20067;-57
2022/07/30 11:44:53;;;;;;;2.65;0.70;;;;;;;;;;5034906;28;20053;-58
2022/07/30 11:47:29;;;;;;;1.95;0.40;;;;;;;;;;5034688;28;20045;-57
2022/07/30 11:49:59;;;;;;;3.22;0.52;;;;;;;;;;5034963;28;20126;-58
2022/07/30 11:52:29;;;;;;;3.53;0.60;;;;;;;;;;5035120;28;20053;-59
2022/07/30 11:54:58;;;;;;;1.95;0.70;;;;;;;;;;5035217;28;20084;-59
2022/07/30 11:57:39;;;;;;;3.58;0.60;;;;;;;;;;5034890;28;20050;-59
2022/07/30 12:00:12;;;;;;;3.15;0.68;;;;;;;;;;5034800;28;20060;-59
2022/07/30 12:02:39;;;;;;;3.33;0.65;;;;;;;;;;5034729;28;20057;-58
2022/07/30 12:05:07;;;;;;;1.45;0.50;;;;;;;;;;5034449;28;20041;-58
2022/07/30 12:07:37;;;;;;;2.60;0.52;;;;;;;;;;5034840;28;20049;-59
2022/07/30 12:10:13;;;;;;;0.85;0.50;;;;;;;;;;5034887;28;20084;-59
2022/07/30 12:12:41;;;;;;;0.63;0.40;;;;;;;;;;5034732;28;20053;-58
2022/07/30 12:15:28;;;;;;;4.53;1.15;;;;;;;;;;5034762;28;20041;-59
2022/07/30 12:17:54;;;;;;;2.55;0.60;;;;;;;;;;5034538;28;20063;-55
2022/07/30 12:20:21;;;;;;;2.65;0.77;;;;;;;;;;5034513;28;20057;-58
2022/07/30 12:22:48;;;;;;;16.08;1.80;;;;;;;;;;5034727;28;20406;-57
2022/07/30 12:25:16;;;;;;;1.98;0.70;;;;;;;;;;5034028;28;20135;-56
2022/07/30 12:27:45;;;;;;;1.55;0.80;;;;;;;;;;5034454;28;20050;-57
2022/07/30 12:30:17;;;;;;;1.70;0.70;;;;;;;;;;5034117;28;20085;-57
2022/07/30 12:32:47;;;;;;;1.00;0.57;;;;;;;;;;5034537;28;20049;-57
2022/07/30 12:35:16;;;;;;;0.88;0.50;;;;;;;;;;5034482;28;20049;-58
2022/07/30 12:38:08;;;;;;;2.40;1.00;;;;;;;;;;5034003;28;20132;-57
2022/07/30 12:40:50;;;;;;;2.63;0.80;;;;;;;;;;5034088;28;20521;-57
2022/07/30 12:43:18;;;;;;;1.23;0.65;;;;;;;;;;5033780;28;20053;-57
2022/07/30 12:45:58;;;;;;;3.15;1.73;;;;;;;;;;5033832;28;20382;-59
2022/07/30 12:48:27;;;;;;;4.43;1.00;;;;;;;;;;5033980;28;20362;-58
2022/07/30 12:51:03;;;;;;;2.97;0.60;;;;;;;;;;5033948;28;20064;-59
2022/07/30 12:53:31;;;;;;;2.80;0.80;;;;;;;;;;5033735;28;20395;-59
2022/07/30 12:56:12;;;;;;;2.60;0.65;;;;;;;;;;5028293;28;20429;-60
2022/07/30 12:58:43;;;;;;;1.88;0.57;;;;;;;;;;5033209;28;20085;-59
2022/07/30 13:01:15;;;;;;;2.72;1.02;;;;;;;;;;5033621;28;20076;-60
2022/07/30 13:03:44;;;;;;;1.77;0.60;;;;;;;;;;5024346;28;20053;-59
2022/07/30 13:06:17;;;;;;;1.85;0.70;;;;;;;;;;5022243;28;20077;-59
2022/07/30 13:08:54;;;;;;;6.03;0.82;;;;;;;;;;5017908;28;20112;-59
2022/07/30 13:11:21;;;;;;;3.88;0.80;;;;;;;;;;5022988;28;20049;-55
2022/07/30 13:13:50;;;;;;;4.70;0.77;;;;;;;;;;5028443;28;20645;-59
2022/07/30 13:16:33;;;;;;;2.05;0.57;;;;;;;;;;5028204;28;20053;-59
2022/07/30 13:19:02;;;;;;;2.10;0.70;;;;;;;;;;5032639;28;20512;-59
2022/07/30 13:21:30;;;;;;;2.00;0.57;;;;;;;;;;5033605;28;20150;-59
2022/07/30 13:23:56;;;;;;;1.27;0.57;;;;;;;;;;5033270;28;20482;-59
2022/07/30 13:26:24;;;;;;;4.05;0.68;;;;;;;;;;5021706;28;20077;-59
2022/07/30 13:28:54;;;;;;;2.60;1.05;;;;;;;;;;5033141;28;20050;-57
2022/07/30 13:31:27;;;;;;;1.95;0.50;;;;;;;;;;5033851;28;20132;-59
2022/07/30 13:33:56;;;;;;;1.05;0.43;;;;;;;;;;5033264;28;20052;-59
2022/07/30 13:36:23;;;;;;;2.08;0.70;;;;;;;;;;5033054;28;20058;-58
2022/07/30 13:38:53;;;;;;;1.70;0.50;;;;;;;;;;5024646;28;20060;-60
2022/07/30 13:41:22;;;;;;;1.70;0.80;;;;;;;;;;5021425;28;20064;-59
2022/07/30 13:43:52;;;;;;;2.33;0.70;;;;;;;;;;5025116;28;20529;-59
2022/07/30 13:46:22;;;;;;;15.05;1.17;;;;;;;;;;5033246;28;20050;-59
2022/07/30 13:48:59;;;;;;;5.50;1.00;;;;;;;;;;5033327;28;20046;-59
2022/07/30 13:51:29;;;;;;;3.00;0.60;;;;;;;;;;5032823;28;20390;-59
2022/07/30 13:53:59;;;;;;;2.05;0.60;;;;;;;;;;5032633;28;20054;-59
2022/07/30 13:56:29;;;;;;;16.17;1.70;;;;;;;;;;5033011;28;20049;-59
2022/07/30 13:58:59;;;;;;;4.32;0.90;;;;;;;;;;5032228;28;20561;-59
2022/07/30 14:01:29;;;;;;;1.92;0.70;;;;;;;;;;5032327;28;20140;-59
2022/07/30 14:03:57;;;;;;;1.90;0.80;;;;;;;;;;5031961;28;20140;-59
2022/07/30 14:06:24;;;;;;;2.03;0.70;;;;;;;;;;5032210;28;20145;-59
2022/07/30 14:08:51;;;;;;;1.00;0.60;;;;;;;;;;5036098;28;20049;-59
2022/07/30 14:11:19;;;;;;;1.85;0.80;;;;;;;;;;5036625;28;20081;-59
2022/07/30 14:13:49;;;;;;;4.05;0.90;;;;;;;;;;5036922;28;20045;-60
2022/07/30 14:16:18;;;;;;;2.72;0.90;;;;;;;;;;5036741;28;20053;-60
2022/07/30 14:18:47;;;;;;;17.63;2.85;;;;;;;;;;5036760;28;20053;-60
2022/07/30 14:21:23;;;;;;;2.83;0.70;;;;;;;;;;5036619;28;20049;-59
2022/07/30 14:23:51;;;;;;;2.22;0.88;;;;;;;;;;5038126;28;20045;-59
2022/07/30 14:26:19;;;;;;;3.45;0.82;;;;;;;;;;5039573;28;20115;-55
2022/07/30 14:28:50;;;;;;;3.03;0.77;;;;;;;;;;5036862;28;20049;-59
2022/07/30 14:31:18;;;;;;;2.10;0.80;;;;;;;;;;5036506;28;20115;-59
2022/07/30 14:33:45;;;;;;;2.60;0.65;;;;;;;;;;5036618;28;20085;-59
2022/07/30 14:36:13;;;;;;;32.70;2.22;;;;;;;;;;5036543;28;20156;-59
2022/07/30 14:38:43;;;;;;;2.35;0.70;;;;;;;;;;5036207;28;20061;-58
2022/07/30 14:41:09;;;;;;;2.20;1.00;;;;;;;;;;5036429;28;20054;-57
2022/07/30 14:43:37;;;;;;;4.63;0.88;;;;;;;;;;5030403;28;20046;-57
2022/07/30 14:46:05;;;;;;;3.03;0.90;;;;;;;;;;5028585;28;20536;-59
2022/07/30 14:48:33;;;;;;;4.07;0.70;;;;;;;;;;5036113;28;20513;-59
2022/07/30 14:51:03;;;;;;;2.78;0.70;;;;;;;;;;5035600;28;20054;-59
2022/07/30 14:53:33;;;;;;;2.00;0.80;;;;;;;;;;5034380;28;20064;-59
2022/07/30 14:56:14;;;;;;;2.13;0.80;;;;;;;;;;5035527;28;20064;-59
2022/07/30 14:58:40;;;;;;;5.38;1.13;;;;;;;;;;5035424;28;20072;-59
2022/07/30 15:01:10;;;;;;;1.95;0.65;;;;;;;;;;5033794;28;20064;-59
2022/07/30 15:03:37;;;;;;;2.38;0.80;;;;;;;;;;5035549;28;20060;-58
2022/07/30 15:06:08;;;;;;;4.47;0.70;;;;;;;;;;5035157;28;20059;-58
2022/07/30 15:08:37;;;;;;;14.63;2.03;;;;;;;;;;5035750;28;20653;-58
2022/07/30 15:11:13;;;;;;;3.00;0.70;;;;;;;;;;5035579;28;20068;-59
2022/07/30 15:13:40;;;;;;;4.05;0.80;;;;;;;;;;5035188;28;20103;-58
2022/07/30 15:16:10;;;;;;;2.40;0.65;;;;;;;;;;5035011;28;20135;-59
2022/07/30 15:18:40;;;;;;;2.78;0.70;;;;;;;;;;5035068;28;20055;-59
2022/07/30 15:21:08;;;;;;;1.88;0.55;;;;;;;;;;5036154;28;20069;-59